createdAt,value
2022-11-24T00:02:00.079Z,6.63
2022-11-24T00:07:03.516Z,7.03
2022-11-24T00:12:07.063Z,7.33
2022-11-24T00:17:11.871Z,7.13
2022-11-24T00:22:15.336Z,7.47
2022-11-24T00:27:18.730Z,7.77
2022-11-24T00:32:23.523Z,13.90
2022-11-24T00:37:26.957Z,10.10
2022-11-24T00:42:30.303Z,10.93
2022-11-24T00:47:35.090Z,9.03
2022-11-24T00:52:38.479Z,12.80
2022-11-24T00:57:41.869Z,9.47
2022-11-24T01:02:46.768Z,9.60
2022-11-24T01:07:50.213Z,8.50
2022-11-24T01:12:53.707Z,8.53
2022-11-24T01:17:58.632Z,15.10
2022-11-24T01:23:01.996Z,12.73
2022-11-24T01:28:05.685Z,9.73
2022-11-24T01:33:10.473Z,10.43
2022-11-24T01:38:13.855Z,10.80
2022-11-24T01:43:18.846Z,10.60
2022-11-24T01:48:27.949Z,9.87
2022-11-24T01:53:32.167Z,12.20
2022-11-24T01:58:37.701Z,12.30
2022-11-24T02:03:45.112Z,12.93
2022-11-24T02:08:53.166Z,12.80
2022-11-24T02:13:57.654Z,12.80
2022-11-24T02:19:02.939Z,14.90
2022-11-24T02:24:14.574Z,17.97
2022-11-24T02:29:20.692Z,13.90
2022-11-24T02:34:24.094Z,16.03
2022-11-24T02:39:27.597Z,19.10
2022-11-24T02:44:37.940Z,16.57
2022-11-24T02:49:41.660Z,20.13
2022-11-24T02:54:45.075Z,18.27
2022-11-24T02:59:49.908Z,20.77
2022-11-24T03:04:53.319Z,16.97
2022-11-24T03:09:56.684Z,17.10
2022-11-24T03:15:02.729Z,20.73
2022-11-24T03:20:07.657Z,18.10
2022-11-24T03:25:11.392Z,20.57
2022-11-24T03:30:17.379Z,31.13
2022-11-24T03:35:21.291Z,26.50
2022-11-24T03:40:24.692Z,26.43
2022-11-24T03:45:45.530Z,28.40
2022-11-24T03:50:54.401Z,30.20
2022-11-24T03:55:57.899Z,26.70
2022-11-24T04:01:02.946Z,25.67
2022-11-24T04:06:06.529Z,24.47
2022-11-24T04:11:29.908Z,27.53
2022-11-24T04:16:34.745Z,31.77
2022-11-24T04:21:38.248Z,24.70
2022-11-24T04:26:41.803Z,26.97
2022-11-24T04:31:46.599Z,34.43
2022-11-24T04:36:50.079Z,48.07
2022-11-24T04:41:53.508Z,36.93
2022-11-24T04:46:58.556Z,54.30
2022-11-24T04:52:01.988Z,64.63
2022-11-24T04:57:05.690Z,92.20
2022-11-24T05:02:11.185Z,145.07
2022-11-24T05:07:18.822Z,75.47
2022-11-24T05:12:22.660Z,28.17
2022-11-24T05:17:30.148Z,29.53
2022-11-24T05:22:33.850Z,21.83
2022-11-24T05:27:37.763Z,37.40
2022-11-24T05:32:42.770Z,21.43
2022-11-24T05:37:47.647Z,41.90
2022-11-24T05:42:51.068Z,18.97
2022-11-24T05:47:55.893Z,19.37
2022-11-24T05:53:04.210Z,18.63
2022-11-24T05:58:09.966Z,19.70
2022-11-24T06:03:14.812Z,40.90
2022-11-24T06:08:18.351Z,27.37
2022-11-24T06:13:21.850Z,27.43
2022-11-24T06:18:26.858Z,34.70
2022-11-24T06:23:30.299Z,22.00
2022-11-24T06:28:33.726Z,26.27
2022-11-24T06:33:39.716Z,30.20
2022-11-24T06:38:43.212Z,19.97
2022-11-24T06:43:47.690Z,23.43
2022-11-24T06:48:54.101Z,24.67
2022-11-24T06:53:57.547Z,24.73
2022-11-24T06:59:01.583Z,22.17
2022-11-24T07:04:06.803Z,25.63
2022-11-24T07:09:12.032Z,20.07
2022-11-24T07:14:15.543Z,24.97
2022-11-24T07:19:24.826Z,21.23
2022-11-24T07:24:28.617Z,33.37
2022-11-24T07:29:32.036Z,28.20
2022-11-24T07:34:37.135Z,33.70
2022-11-24T07:39:40.647Z,29.00
2022-11-24T07:44:44.055Z,35.27
2022-11-24T07:49:48.885Z,34.37
2022-11-24T07:54:52.363Z,31.20
2022-11-24T07:59:55.764Z,34.60
2022-11-24T08:05:00.603Z,28.37
2022-11-24T08:10:03.994Z,35.57
2022-11-24T08:15:11.115Z,28.53
2022-11-24T08:20:16.400Z,30.57
2022-11-24T08:25:20.086Z,31.27
2022-11-24T08:30:23.660Z,32.23
2022-11-24T08:35:29.222Z,36.57
2022-11-24T08:40:33.236Z,27.30
2022-11-24T08:45:41.163Z,31.20
2022-11-24T08:50:46.560Z,27.87
2022-11-24T08:55:50.010Z,28.03
2022-11-24T09:00:53.514Z,29.73
2022-11-24T09:05:58.325Z,30.93
2022-11-24T09:11:02.425Z,30.13
2022-11-24T09:16:06.661Z,28.60
2022-11-24T09:21:13.668Z,28.20
2022-11-24T09:26:18.987Z,27.97
2022-11-24T09:31:26.995Z,29.67
2022-11-24T09:36:32.596Z,28.23
2022-11-24T09:42:12.752Z,28.73
2022-11-24T09:47:24.711Z,24.63
2022-11-24T09:52:40.423Z,28.93
2022-11-24T09:57:45.255Z,30.20
2022-11-24T10:02:50.460Z,25.30
2022-11-24T10:08:04.947Z,24.10
2022-11-24T10:13:24.771Z,20.90
2022-11-24T10:18:45.297Z,22.30
2022-11-24T10:24:10.279Z,24.37
2022-11-24T10:29:21.342Z,20.37
2022-11-24T10:34:30.004Z,19.30
2022-11-24T10:39:40.828Z,22.23
2022-11-24T10:44:44.888Z,20.23
2022-11-24T10:49:56.775Z,23.27
2022-11-24T10:55:04.235Z,26.43
2022-11-24T11:00:34.414Z,32.63
2022-11-24T11:05:43.021Z,35.20
2022-11-24T11:10:49.976Z,36.17
2022-11-24T11:15:53.977Z,41.20
2022-11-24T11:21:01.776Z,36.80
2022-11-24T11:26:33.829Z,35.13
2022-11-24T11:31:37.954Z,30.23
2022-11-24T11:36:45.132Z,30.30
2022-11-24T11:41:53.109Z,28.43
2022-11-24T11:46:59.842Z,30.10
2022-11-24T11:52:22.886Z,27.67
2022-11-24T11:57:36.439Z,28.07
2022-11-24T12:03:00.932Z,26.03
2022-11-24T12:08:21.507Z,29.97
2022-11-24T12:13:50.245Z,26.93
2022-11-24T12:19:06.287Z,27.97
2022-11-24T12:24:15.371Z,42.00
2022-11-24T12:29:45.348Z,44.43
2022-11-24T12:34:56.623Z,46.43
2022-11-24T12:40:06.121Z,42.43
2022-11-24T12:45:17.667Z,41.73
2022-11-24T12:50:25.230Z,33.23
2022-11-24T12:55:30.202Z,37.37
2022-11-24T13:00:42.224Z,38.03
2022-11-24T13:05:52.514Z,32.50
2022-11-24T13:10:57.623Z,32.43
2022-11-24T13:22:16.471Z,11.93
2022-11-24T13:27:41.399Z,10.23
2022-11-24T13:33:03.414Z,11.97
2022-11-24T13:38:42.762Z,11.63
2022-11-24T13:44:20.772Z,13.00
2022-11-24T13:49:26.024Z,13.60
2022-11-24T13:54:30.330Z,13.73
2022-11-24T13:59:36.507Z,15.50
2022-11-24T14:04:45.809Z,21.33
2022-11-24T14:09:52.307Z,17.27
2022-11-24T14:15:22.963Z,17.57
2022-11-24T14:20:29.442Z,17.53
2022-11-24T14:25:35.307Z,18.77
2022-11-24T14:30:38.760Z,17.47
2022-11-24T14:35:46.844Z,20.27
2022-11-24T14:40:52.582Z,17.50
2022-11-24T14:45:58.483Z,18.13
2022-11-24T14:51:16.327Z,21.10
2022-11-24T14:56:28.441Z,20.47
2022-11-24T15:01:34.630Z,22.27
2022-11-24T15:06:40.766Z,22.73
2022-11-24T15:11:44.382Z,21.97
2022-11-24T15:16:47.905Z,24.90
2022-11-24T15:21:52.968Z,24.40
2022-11-24T15:27:02.710Z,21.13
2022-11-24T15:32:15.069Z,44.43
2022-11-24T15:37:19.833Z,55.03
2022-11-24T15:42:23.257Z,35.97
2022-11-24T15:47:26.725Z,66.13
2022-11-24T15:52:31.983Z,36.93
2022-11-24T15:57:35.734Z,34.23
2022-11-24T16:02:39.187Z,32.07
2022-11-24T16:07:44.213Z,31.50
2022-11-24T16:12:47.749Z,28.87
2022-11-24T16:17:51.196Z,24.17
2022-11-24T16:22:56.007Z,20.93
2022-11-24T16:27:59.900Z,18.73
2022-11-24T16:33:05.783Z,17.33
2022-11-24T16:38:16.388Z,14.87
2022-11-24T16:43:20.076Z,10.90
2022-11-24T16:48:23.482Z,12.23
2022-11-24T16:53:28.206Z,10.13
2022-11-24T16:58:31.580Z,13.00
2022-11-24T17:03:37.285Z,13.23
2022-11-24T17:08:42.871Z,12.13
2022-11-24T17:13:47.501Z,14.23
2022-11-24T17:18:51.898Z,15.77
2022-11-24T17:23:57.405Z,12.13
2022-11-24T17:29:00.987Z,11.97
2022-11-24T17:34:06.183Z,13.03
2022-11-24T17:39:11.442Z,12.53
2022-11-24T17:44:14.848Z,13.17
2022-11-24T17:49:18.566Z,15.73
2022-11-24T17:59:46.740Z,14.03
2022-11-24T18:04:50.300Z,15.10
2022-11-24T18:09:55.094Z,16.33
2022-11-24T18:14:58.516Z,15.87
2022-11-24T18:20:01.890Z,15.40
2022-11-24T18:25:09.224Z,16.47
2022-11-24T18:30:12.897Z,16.13
2022-11-24T18:35:16.384Z,15.07
2022-11-24T18:40:21.469Z,15.50
2022-11-24T18:45:24.948Z,14.57
2022-11-24T18:50:28.498Z,16.10
2022-11-24T18:55:33.343Z,15.77
2022-11-24T19:00:37.082Z,15.47
2022-11-24T19:05:41.358Z,18.40
2022-11-24T19:10:46.452Z,16.90
2022-11-24T19:15:49.909Z,16.97
2022-11-24T19:20:53.378Z,17.83
2022-11-24T19:26:01.201Z,19.03
2022-11-24T19:31:06.724Z,17.80
2022-11-24T19:36:13.493Z,18.87
2022-11-24T19:41:19.627Z,16.13
2022-11-24T19:46:26.288Z,16.33
2022-11-24T19:51:32.400Z,19.17
2022-11-24T19:56:38.273Z,16.57
2022-11-24T20:01:42.747Z,17.23
2022-11-24T20:06:47.972Z,18.00
2022-11-24T20:11:52.862Z,17.40
2022-11-24T20:16:56.784Z,19.23
2022-11-24T20:22:00.336Z,17.37
2022-11-24T20:27:05.305Z,20.07
2022-11-24T20:32:08.738Z,19.07
2022-11-24T20:37:13.752Z,18.13
2022-11-24T20:42:18.555Z,21.40
2022-11-24T20:47:21.985Z,18.87
2022-11-24T20:52:25.429Z,19.67
2022-11-24T20:57:30.637Z,18.97
2022-11-24T21:02:34.120Z,18.93
2022-11-24T21:07:37.571Z,18.37
2022-11-24T21:12:42.361Z,16.97
2022-11-24T21:17:45.764Z,17.03
2022-11-24T21:22:49.097Z,14.50
2022-11-24T21:27:53.856Z,17.87
2022-11-24T21:32:57.261Z,16.20
2022-11-24T21:38:00.625Z,16.07
2022-11-24T21:43:05.516Z,15.50
2022-11-24T21:48:08.917Z,16.90
2022-11-24T21:53:12.237Z,13.03
2022-11-24T21:58:17.041Z,13.80
2022-11-24T22:03:21.090Z,12.70
2022-11-24T22:08:25.142Z,15.63
2022-11-24T22:13:30.054Z,14.80
2022-11-24T22:18:34.765Z,15.27
2022-11-24T22:23:38.204Z,13.90
2022-11-24T22:28:43.810Z,15.73
2022-11-24T22:33:47.638Z,17.50
2022-11-24T22:38:55.118Z,15.77
2022-11-24T22:43:59.865Z,15.50
2022-11-24T22:49:03.518Z,13.97
2022-11-24T22:54:07.466Z,16.33
2022-11-24T22:59:12.256Z,13.63
2022-11-24T23:04:15.888Z,15.03
2022-11-24T23:09:19.325Z,14.20
2022-11-24T23:14:24.135Z,15.30
2022-11-24T23:19:27.681Z,13.43
2022-11-24T23:24:31.209Z,14.13
2022-11-24T23:29:36.017Z,15.70
2022-11-24T23:34:39.378Z,13.20
2022-11-24T23:39:42.811Z,14.60
2022-11-24T23:44:47.602Z,14.87
2022-11-24T23:49:51.026Z,17.00
2022-11-24T23:54:54.496Z,16.17
2022-11-24T23:59:59.295Z,14.67
